sensor_id;sensor_type;location;lat;lon;timestamp;pressure;altitude;pressure_sealevel;temperature;humidity
43420;BME280;29017;51.514;-0.178;2023-03-21T00:00:41;100898.69;;;12.84;99.56
43420;BME280;29017;51.514;-0.178;2023-03-21T00:03:08;100899.53;;;12.84;99.54
43420;BME280;29017;51.514;-0.178;2023-03-21T00:08:06;100894.38;;;12.91;99.90
43420;BME280;29017;51.514;-0.178;2023-03-21T00:10:33;100895.22;;;12.92;99.29
43420;BME280;29017;51.514;-0.178;2023-03-21T00:13:09;100884.81;;;12.90;98.89
43420;BME280;29017;51.514;-0.178;2023-03-21T00:15:39;100882.16;;;12.90;98.54
43420;BME280;29017;51.514;-0.178;2023-03-21T00:18:35;100873.44;;;12.90;98.42
43420;BME280;29017;51.514;-0.178;2023-03-21T00:21:03;100870.81;;;12.90;97.93
43420;BME280;29017;51.514;-0.178;2023-03-21T00:23:50;100878.88;;;12.88;97.88
43420;BME280;29017;51.514;-0.178;2023-03-21T00:26:17;100875.56;;;12.86;97.46
43420;BME280;29017;51.514;-0.178;2023-03-21T00:28:44;100876.75;;;12.83;97.28
43420;BME280;29017;51.514;-0.178;2023-03-21T00:31:11;100873.28;;;12.83;96.88
43420;BME280;29017;51.514;-0.178;2023-03-21T00:33:39;100870.78;;;12.81;96.92
43420;BME280;29017;51.514;-0.178;2023-03-21T00:39:26;100863.19;;;12.86;97.46
43420;BME280;29017;51.514;-0.178;2023-03-21T00:41:53;100857.75;;;12.88;97.36
43420;BME280;29017;51.514;-0.178;2023-03-21T00:44:20;100854.13;;;12.89;97.56
43420;BME280;29017;51.514;-0.178;2023-03-21T00:46:49;100854.97;;;12.90;97.51
43420;BME280;29017;51.514;-0.178;2023-03-21T00:49:32;100854.13;;;12.89;97.21
43420;BME280;29017;51.514;-0.178;2023-03-21T00:52:00;100852.31;;;12.90;97.01
43420;BME280;29017;51.514;-0.178;2023-03-21T00:54:43;100842.56;;;12.90;97.07
43420;BME280;29017;51.514;-0.178;2023-03-21T00:57:11;100841.75;;;12.90;97.25
43420;BME280;29017;51.514;-0.178;2023-03-21T00:59:38;100835.66;;;12.89;97.29
43420;BME280;29017;51.514;-0.178;2023-03-21T01:02:05;100831.50;;;12.86;97.16
43420;BME280;29017;51.514;-0.178;2023-03-21T01:04:33;100821.28;;;12.83;96.81
43420;BME280;29017;51.514;-0.178;2023-03-21T01:07:03;100827.41;;;12.84;96.83
43420;BME280;29017;51.514;-0.178;2023-03-21T01:09:30;100821.09;;;12.85;96.63
43420;BME280;29017;51.514;-0.178;2023-03-21T01:11:58;100820.13;;;12.86;96.63
43420;BME280;29017;51.514;-0.178;2023-03-21T01:14:25;100811.06;;;12.89;97.05
43420;BME280;29017;51.514;-0.178;2023-03-21T01:16:52;100809.41;;;12.88;96.69
43420;BME280;29017;51.514;-0.178;2023-03-21T01:19:21;100808.88;;;12.92;96.93
43420;BME280;29017;51.514;-0.178;2023-03-21T01:21:58;100804.59;;;12.91;96.49
43420;BME280;29017;51.514;-0.178;2023-03-21T01:24:25;100790.41;;;12.92;96.77
43420;BME280;29017;51.514;-0.178;2023-03-21T01:26:52;100791.56;;;12.90;96.08
43420;BME280;29017;51.514;-0.178;2023-03-21T01:29:20;100788.28;;;12.88;95.75
43420;BME280;29017;51.514;-0.178;2023-03-21T01:31:47;100794.38;;;12.88;96.23
43420;BME280;29017;51.514;-0.178;2023-03-21T01:34:14;100782.00;;;12.89;96.08
43420;BME280;29017;51.514;-0.178;2023-03-21T01:36:41;100782.16;;;12.87;95.34
43420;BME280;29017;51.514;-0.178;2023-03-21T01:39:08;100776.88;;;12.87;95.28
43420;BME280;29017;51.514;-0.178;2023-03-21T01:41:36;100783.16;;;12.86;95.22
43420;BME280;29017;51.514;-0.178;2023-03-21T01:46:42;100775.22;;;12.86;95.11
43420;BME280;29017;51.514;-0.178;2023-03-21T01:49:28;100775.41;;;12.84;95.12
43420;BME280;29017;51.514;-0.178;2023-03-21T01:52:02;100776.41;;;12.83;95.23
43420;BME280;29017;51.514;-0.178;2023-03-21T01:54:40;100762.03;;;12.86;95.66
43420;BME280;29017;51.514;-0.178;2023-03-21T01:57:11;100770.13;;;12.84;95.20
43420;BME280;29017;51.514;-0.178;2023-03-21T01:59:39;100763.00;;;12.85;95.08
43420;BME280;29017;51.514;-0.178;2023-03-21T02:02:10;100755.75;;;12.87;95.25
43420;BME280;29017;51.514;-0.178;2023-03-21T02:04:38;100747.84;;;12.87;94.72
43420;BME280;29017;51.514;-0.178;2023-03-21T02:07:06;100747.34;;;12.83;94.51
43420;BME280;29017;51.514;-0.178;2023-03-21T02:09:36;100753.63;;;12.82;94.60
43420;BME280;29017;51.514;-0.178;2023-03-21T02:12:03;100739.44;;;12.83;94.67
43420;BME280;29017;51.514;-0.178;2023-03-21T02:14:30;100736.13;;;12.81;93.82
43420;BME280;29017;51.514;-0.178;2023-03-21T02:27:09;100713.19;;;12.82;94.36
43420;BME280;29017;51.514;-0.178;2023-03-21T02:47:33;100707.13;;;12.73;93.63
43420;BME280;29017;51.514;-0.178;2023-03-21T02:52:28;100696.25;;;12.68;92.96
43420;BME280;29017;51.514;-0.178;2023-03-21T02:55:06;100699.88;;;12.67;93.10
43420;BME280;29017;51.514;-0.178;2023-03-21T02:57:40;100693.75;;;12.67;92.99
43420;BME280;29017;51.514;-0.178;2023-03-21T03:00:10;100683.72;;;12.62;92.56
43420;BME280;29017;51.514;-0.178;2023-03-21T03:02:42;100691.78;;;12.61;93.07
43420;BME280;29017;51.514;-0.178;2023-03-21T03:05:12;100691.16;;;12.59;93.22
43420;BME280;29017;51.514;-0.178;2023-03-21T03:10:20;100687.69;;;12.58;93.11
43420;BME280;29017;51.514;-0.178;2023-03-21T03:25:19;100681.28;;;12.53;94.11
43420;BME280;29017;51.514;-0.178;2023-03-21T03:28:05;100667.09;;;12.54;94.08
43420;BME280;29017;51.514;-0.178;2023-03-21T03:30:33;100661.97;;;12.52;94.42
43420;BME280;29017;51.514;-0.178;2023-03-21T03:33:14;100671.53;;;12.53;94.50
43420;BME280;29017;51.514;-0.178;2023-03-21T03:35:43;100651.41;;;12.52;94.45
43420;BME280;29017;51.514;-0.178;2023-03-21T03:38:18;100658.19;;;12.47;93.98
43420;BME280;29017;51.514;-0.178;2023-03-21T03:40:48;100653.44;;;12.42;94.17
43420;BME280;29017;51.514;-0.178;2023-03-21T03:43:19;100650.94;;;12.40;94.23
43420;BME280;29017;51.514;-0.178;2023-03-21T03:45:48;100646.34;;;12.42;94.93
43420;BME280;29017;51.514;-0.178;2023-03-21T03:50:46;100636.28;;;12.38;93.94
43420;BME280;29017;51.514;-0.178;2023-03-21T03:55:45;100621.59;;;12.35;94.13
43420;BME280;29017;51.514;-0.178;2023-03-21T03:58:15;100628.19;;;12.39;94.96
43420;BME280;29017;51.514;-0.178;2023-03-21T04:00:50;100623.56;;;12.41;94.68
43420;BME280;29017;51.514;-0.178;2023-03-21T04:03:18;100623.41;;;12.43;94.17
43420;BME280;29017;51.514;-0.178;2023-03-21T04:05:45;100622.75;;;12.41;93.13
43420;BME280;29017;51.514;-0.178;2023-03-21T04:08:12;100630.66;;;12.41;92.91
43420;BME280;29017;51.514;-0.178;2023-03-21T04:10:40;100609.38;;;12.42;93.31
43420;BME280;29017;51.514;-0.178;2023-03-21T04:13:07;100608.91;;;12.39;91.58
43420;BME280;29017;51.514;-0.178;2023-03-21T04:15:34;100609.91;;;12.38;90.68
43420;BME280;29017;51.514;-0.178;2023-03-21T04:18:01;100609.09;;;12.37;90.46
43420;BME280;29017;51.514;-0.178;2023-03-21T04:20:28;100626.88;;;12.35;90.36
43420;BME280;29017;51.514;-0.178;2023-03-21T04:23:02;100600.84;;;12.32;89.96
43420;BME280;29017;51.514;-0.178;2023-03-21T04:25:31;100607.28;;;12.30;90.34
43420;BME280;29017;51.514;-0.178;2023-03-21T04:28:00;100593.44;;;12.28;90.24
43420;BME280;29017;51.514;-0.178;2023-03-21T04:30:27;100590.97;;;12.26;90.10
43420;BME280;29017;51.514;-0.178;2023-03-21T04:32:54;100577.78;;;12.26;89.57
43420;BME280;29017;51.514;-0.178;2023-03-21T04:35:22;100586.22;;;12.22;89.50
43420;BME280;29017;51.514;-0.178;2023-03-21T04:37:50;100586.88;;;12.24;90.53
43420;BME280;29017;51.514;-0.178;2023-03-21T04:40:17;100603.34;;;12.26;89.99
43420;BME280;29017;51.514;-0.178;2023-03-21T04:42:45;100603.19;;;12.27;89.98
43420;BME280;29017;51.514;-0.178;2023-03-21T04:45:13;100611.09;;;12.27;89.89
43420;BME280;29017;51.514;-0.178;2023-03-21T04:47:41;100600.69;;;12.26;89.85
43420;BME280;29017;51.514;-0.178;2023-03-21T04:50:08;100583.72;;;12.28;90.43
43420;BME280;29017;51.514;-0.178;2023-03-21T04:52:36;100589.97;;;12.27;90.57
43420;BME280;29017;51.514;-0.178;2023-03-21T04:55:03;100593.09;;;12.31;91.04
43420;BME280;29017;51.514;-0.178;2023-03-21T04:57:30;100605.47;;;12.30;91.38
43420;BME280;29017;51.514;-0.178;2023-03-21T04:59:57;100591.63;;;12.28;91.59
43420;BME280;29017;51.514;-0.178;2023-03-21T05:02:24;100586.16;;;12.30;92.38
43420;BME280;29017;51.514;-0.178;2023-03-21T05:04:51;100573.16;;;12.28;92.57
43420;BME280;29017;51.514;-0.178;2023-03-21T05:07:18;100574.66;;;12.23;92.38
43420;BME280;29017;51.514;-0.178;2023-03-21T05:09:45;100572.53;;;12.18;91.56
43420;BME280;29017;51.514;-0.178;2023-03-21T05:12:12;100568.25;;;12.17;92.49
43420;BME280;29017;51.514;-0.178;2023-03-21T05:14:39;100564.78;;;12.17;93.40
43420;BME280;29017;51.514;-0.178;2023-03-21T05:17:06;100570.06;;;12.17;94.00
43420;BME280;29017;51.514;-0.178;2023-03-21T05:19:33;100567.59;;;12.15;94.35
43420;BME280;29017;51.514;-0.178;2023-03-21T05:22:03;100568.91;;;12.11;93.51
43420;BME280;29017;51.514;-0.178;2023-03-21T05:24:30;100564.63;;;12.10;93.86
43420;BME280;29017;51.514;-0.178;2023-03-21T05:26:58;100566.31;;;12.03;93.40
43420;BME280;29017;51.514;-0.178;2023-03-21T05:29:29;100561.56;;;11.98;93.47
43420;BME280;29017;51.514;-0.178;2023-03-21T05:31:56;100573.09;;;11.97;94.06
43420;BME280;29017;51.514;-0.178;2023-03-21T05:34:24;100580.16;;;11.97;94.38
43420;BME280;29017;51.514;-0.178;2023-03-21T05:36:51;100572.09;;;11.98;94.92
43420;BME280;29017;51.514;-0.178;2023-03-21T05:39:18;100561.56;;;11.98;94.64
43420;BME280;29017;51.514;-0.178;2023-03-21T05:41:45;100555.47;;;11.98;94.25
43420;BME280;29017;51.514;-0.178;2023-03-21T05:44:12;100555.47;;;11.98;94.51
43420;BME280;29017;51.514;-0.178;2023-03-21T05:46:39;100548.38;;;11.98;95.00
43420;BME280;29017;51.514;-0.178;2023-03-21T05:49:06;100561.72;;;11.97;94.61
43420;BME280;29017;51.514;-0.178;2023-03-21T05:51:33;100554.78;;;11.96;94.77
43420;BME280;29017;51.514;-0.178;2023-03-21T05:54:00;100546.22;;;11.94;94.53
43420;BME280;29017;51.514;-0.178;2023-03-21T05:56:27;100551.31;;;11.95;94.95
43420;BME280;29017;51.514;-0.178;2023-03-21T05:58:54;100556.75;;;11.94;94.52
43420;BME280;29017;51.514;-0.178;2023-03-21T06:01:20;100550.03;;;11.91;94.35
43420;BME280;29017;51.514;-0.178;2023-03-21T06:03:47;100550.19;;;11.90;94.55
43420;BME280;29017;51.514;-0.178;2023-03-21T06:06:15;100557.09;;;11.91;94.54
43420;BME280;29017;51.514;-0.178;2023-03-21T06:08:42;100561.56;;;11.90;94.23
43420;BME280;29017;51.514;-0.178;2023-03-21T06:11:12;100561.41;;;11.92;94.47
43420;BME280;29017;51.514;-0.178;2023-03-21T06:13:45;100562.38;;;11.91;94.44
43420;BME280;29017;51.514;-0.178;2023-03-21T06:16:11;100552.00;;;11.89;94.80
43420;BME280;29017;51.514;-0.178;2023-03-21T06:18:39;100550.19;;;11.90;94.81
43420;BME280;29017;51.514;-0.178;2023-03-21T06:21:06;100543.25;;;11.89;94.85
43420;BME280;29017;51.514;-0.178;2023-03-21T06:23:32;100553.00;;;11.88;93.90
43420;BME280;29017;51.514;-0.178;2023-03-21T06:25:59;100545.09;;;11.88;94.74
43420;BME280;29017;51.514;-0.178;2023-03-21T06:28:26;100553.00;;;11.88;95.46
43420;BME280;29017;51.514;-0.178;2023-03-21T06:30:53;100546.91;;;11.88;94.83
43420;BME280;29017;51.514;-0.178;2023-03-21T06:33:20;100547.91;;;11.87;95.34
43420;BME280;29017;51.514;-0.178;2023-03-21T06:38:18;100547.91;;;11.87;95.83
43420;BME280;29017;51.514;-0.178;2023-03-21T06:40:45;100554.00;;;11.87;95.79
43420;BME280;29017;51.514;-0.178;2023-03-21T06:43:13;100550.38;;;11.88;95.81
43420;BME280;29017;51.514;-0.178;2023-03-21T06:45:40;100547.53;;;11.90;96.02
43420;BME280;29017;51.514;-0.178;2023-03-21T06:48:07;100546.72;;;11.89;96.09
43420;BME280;29017;51.514;-0.178;2023-03-21T06:50:34;100553.47;;;11.92;96.52
43420;BME280;29017;51.514;-0.178;2023-03-21T06:53:01;100537.66;;;11.92;96.54
43420;BME280;29017;51.514;-0.178;2023-03-21T06:55:29;100540.63;;;11.97;96.35
43420;BME280;29017;51.514;-0.178;2023-03-21T06:57:56;100529.72;;;12.00;96.21
43420;BME280;29017;51.514;-0.178;2023-03-21T07:00:24;100528.38;;;12.04;96.27
43420;BME280;29017;51.514;-0.178;2023-03-21T07:02:51;100537.31;;;12.03;95.83
43420;BME280;29017;51.514;-0.178;2023-03-21T07:05:19;100531.53;;;11.99;95.75
43420;BME280;29017;51.514;-0.178;2023-03-21T07:07:46;100534.69;;;12.03;96.11
43420;BME280;29017;51.514;-0.178;2023-03-21T07:10:14;100533.19;;;12.09;96.79
43420;BME280;29017;51.514;-0.178;2023-03-21T07:12:41;100528.22;;;12.14;96.75
43420;BME280;29017;51.514;-0.178;2023-03-21T07:15:08;100525.22;;;12.17;96.89
43420;BME280;29017;51.514;-0.178;2023-03-21T07:17:35;100518.47;;;12.14;96.01
43420;BME280;29017;51.514;-0.178;2023-03-21T07:20:02;100516.84;;;12.13;95.35
43420;BME280;29017;51.514;-0.178;2023-03-21T07:22:33;100520.94;;;12.16;95.60
43420;BME280;29017;51.514;-0.178;2023-03-21T07:25:00;100518.59;;;12.21;95.90
43420;BME280;29017;51.514;-0.178;2023-03-21T07:27:30;100521.41;;;12.27;95.94
43420;BME280;29017;51.514;-0.178;2023-03-21T07:29:58;100528.31;;;12.28;95.37
43420;BME280;29017;51.514;-0.178;2023-03-21T07:32:25;100530.97;;;12.28;94.83
43420;BME280;29017;51.514;-0.178;2023-03-21T07:34:55;100524.50;;;12.31;94.46
43420;BME280;29017;51.514;-0.178;2023-03-21T07:37:22;100524.50;;;12.31;94.47
43420;BME280;29017;51.514;-0.178;2023-03-21T07:39:49;100528.94;;;12.30;94.23
43420;BME280;29017;51.514;-0.178;2023-03-21T07:42:17;100525.31;;;12.31;94.57
43420;BME280;29017;51.514;-0.178;2023-03-21T07:44:44;100529.09;;;12.37;94.58
43420;BME280;29017;51.514;-0.178;2023-03-21T07:47:11;100529.25;;;12.35;94.49
43420;BME280;29017;51.514;-0.178;2023-03-21T07:49:38;100528.75;;;12.40;94.70
43420;BME280;29017;51.514;-0.178;2023-03-21T07:52:05;100533.50;;;12.44;95.45
43420;BME280;29017;51.514;-0.178;2023-03-21T07:54:33;100526.59;;;12.43;94.88
43420;BME280;29017;51.514;-0.178;2023-03-21T07:57:00;100532.22;;;12.40;94.69
43420;BME280;29017;51.514;-0.178;2023-03-21T07:59:27;100539.97;;;12.42;94.91
43420;BME280;29017;51.514;-0.178;2023-03-21T08:01:54;100534.16;;;12.47;95.59
43420;BME280;29017;51.514;-0.178;2023-03-21T08:04:21;100544.03;;;12.53;96.62
43420;BME280;29017;51.514;-0.178;2023-03-21T08:06:49;100538.41;;;12.56;96.75
43420;BME280;29017;51.514;-0.178;2023-03-21T08:09:16;100541.03;;;12.56;96.41
43420;BME280;29017;51.514;-0.178;2023-03-21T08:11:43;100535.75;;;12.56;96.36
43420;BME280;29017;51.514;-0.178;2023-03-21T08:14:10;100534.78;;;12.57;95.74
43420;BME280;29017;51.514;-0.178;2023-03-21T08:16:37;100524.22;;;12.57;95.64
43420;BME280;29017;51.514;-0.178;2023-03-21T08:19:05;100521.41;;;12.58;96.13
43420;BME280;29017;51.514;-0.178;2023-03-21T08:21:32;100520.22;;;12.61;95.96
43420;BME280;29017;51.514;-0.178;2023-03-21T08:23:59;100517.59;;;12.61;95.56
43420;BME280;29017;51.514;-0.178;2023-03-21T08:26:27;100524.97;;;12.65;95.46
43420;BME280;29017;51.514;-0.178;2023-03-21T08:29:06;100525.59;;;12.75;96.19
43420;BME280;29017;51.514;-0.178;2023-03-21T08:31:33;100537.94;;;12.83;95.80
43420;BME280;29017;51.514;-0.178;2023-03-21T08:34:00;100537.56;;;12.86;95.81
43420;BME280;29017;51.514;-0.178;2023-03-21T08:36:28;100554.53;;;12.92;95.86
43420;BME280;29017;51.514;-0.178;2023-03-21T08:38:57;100540.34;;;12.93;94.58
43420;BME280;29017;51.514;-0.178;2023-03-21T08:41:32;100541.50;;;12.90;93.85
43420;BME280;29017;51.514;-0.178;2023-03-21T08:43:59;100531.66;;;12.84;93.49
43420;BME280;29017;51.514;-0.178;2023-03-21T08:46:28;100541.19;;;12.85;93.99
43420;BME280;29017;51.514;-0.178;2023-03-21T08:48:55;100539.88;;;12.89;94.64
43420;BME280;29017;51.514;-0.178;2023-03-21T08:51:22;100530.25;;;12.96;94.52
43420;BME280;29017;51.514;-0.178;2023-03-21T08:53:49;100531.66;;;13.07;94.59
43420;BME280;29017;51.514;-0.178;2023-03-21T08:56:17;100525.34;;;13.16;93.81
43420;BME280;29017;51.514;-0.178;2023-03-21T08:58:45;100510.72;;;13.28;92.97
43420;BME280;29017;51.514;-0.178;2023-03-21T09:01:13;100510.22;;;13.47;92.83
43420;BME280;29017;51.514;-0.178;2023-03-21T09:03:41;100511.00;;;13.70;92.50
43420;BME280;29017;51.514;-0.178;2023-03-21T09:06:09;100502.53;;;13.90;91.10
43420;BME280;29017;51.514;-0.178;2023-03-21T09:08:37;100509.91;;;14.09;90.11
43420;BME280;29017;51.514;-0.178;2023-03-21T09:11:05;100500.56;;;14.28;89.49
43420;BME280;29017;51.514;-0.178;2023-03-21T09:13:32;100502.41;;;14.42;87.93
43420;BME280;29017;51.514;-0.178;2023-03-21T09:16:00;100508.25;;;14.52;87.88
43420;BME280;29017;51.514;-0.178;2023-03-21T09:18:27;100513.16;;;14.55;86.61
43420;BME280;29017;51.514;-0.178;2023-03-21T09:20:57;100505.28;;;14.62;85.93
43420;BME280;29017;51.514;-0.178;2023-03-21T09:23:31;100503.91;;;14.66;85.65
43420;BME280;29017;51.514;-0.178;2023-03-21T09:26:05;100500.88;;;14.69;85.61
43420;BME280;29017;51.514;-0.178;2023-03-21T09:28:33;100501.78;;;14.76;85.49
43420;BME280;29017;51.514;-0.178;2023-03-21T09:31:08;100493.63;;;14.77;84.72
43420;BME280;29017;51.514;-0.178;2023-03-21T09:33:41;100492.25;;;14.81;85.14
43420;BME280;29017;51.514;-0.178;2023-03-21T09:36:14;100495.97;;;14.66;83.38
43420;BME280;29017;51.514;-0.178;2023-03-21T09:38:45;100494.88;;;14.60;84.10
43420;BME280;29017;51.514;-0.178;2023-03-21T09:53:54;100496.47;;;14.40;86.21
43420;BME280;29017;51.514;-0.178;2023-03-21T09:56:22;100483.63;;;14.37;85.71
43420;BME280;29017;51.514;-0.178;2023-03-21T09:58:53;100495.03;;;14.37;85.80
43420;BME280;29017;51.514;-0.178;2023-03-21T10:01:25;100505.63;;;14.37;85.65
43420;BME280;29017;51.514;-0.178;2023-03-21T10:03:56;100507.50;;;14.43;86.44
43420;BME280;29017;51.514;-0.178;2023-03-21T10:06:26;100502.84;;;14.45;86.19
43420;BME280;29017;51.514;-0.178;2023-03-21T10:09:02;100496.31;;;14.41;86.48
43420;BME280;29017;51.514;-0.178;2023-03-21T10:14:06;100503.84;;;14.30;88.66
43420;BME280;29017;51.514;-0.178;2023-03-21T10:16:35;100516.81;;;14.25;88.55
43420;BME280;29017;51.514;-0.178;2023-03-21T10:19:09;100516.28;;;14.14;89.10
43420;BME280;29017;51.514;-0.178;2023-03-21T10:21:43;100510.06;;;14.07;89.99
43420;BME280;29017;51.514;-0.178;2023-03-21T10:24:31;100499.03;;;14.04;90.55
43420;BME280;29017;51.514;-0.178;2023-03-21T10:27:05;100500.59;;;13.98;91.24
43420;BME280;29017;51.514;-0.178;2023-03-21T10:29:39;100501.53;;;13.91;92.15
43420;BME280;29017;51.514;-0.178;2023-03-21T10:32:12;100498.88;;;13.91;92.86
43420;BME280;29017;51.514;-0.178;2023-03-21T10:34:49;100496.03;;;13.92;93.53
43420;BME280;29017;51.514;-0.178;2023-03-21T10:37:19;100496.50;;;13.96;93.90
43420;BME280;29017;51.514;-0.178;2023-03-21T10:39:53;100488.56;;;13.96;93.34
43420;BME280;29017;51.514;-0.178;2023-03-21T10:44:56;100479.25;;;14.14;93.60
43420;BME280;29017;51.514;-0.178;2023-03-21T10:47:29;100480.31;;;14.20;93.33
43420;BME280;29017;51.514;-0.178;2023-03-21T10:52:34;100469.00;;;14.26;91.61
43420;BME280;29017;51.514;-0.178;2023-03-21T10:57:37;100460.50;;;14.31;90.66
43420;BME280;29017;51.514;-0.178;2023-03-21T11:00:09;100457.78;;;14.39;89.53
43420;BME280;29017;51.514;-0.178;2023-03-21T11:02:47;100458.38;;;14.55;89.70
43420;BME280;29017;51.514;-0.178;2023-03-21T11:05:20;100451.84;;;14.73;89.08
43420;BME280;29017;51.514;-0.178;2023-03-21T11:10:26;100446.56;;;15.01;86.86
43420;BME280;29017;51.514;-0.178;2023-03-21T11:13:03;100435.88;;;15.15;84.98
43420;BME280;29017;51.514;-0.178;2023-03-21T11:20:42;100428.31;;;15.40;82.19
43420;BME280;29017;51.514;-0.178;2023-03-21T11:23:13;100433.63;;;15.40;81.34
43420;BME280;29017;51.514;-0.178;2023-03-21T11:28:22;100426.00;;;15.30;80.04
43420;BME280;29017;51.514;-0.178;2023-03-21T11:30:52;100421.09;;;15.27;79.54
43420;BME280;29017;51.514;-0.178;2023-03-21T11:33:22;100418.22;;;15.29;79.94
43420;BME280;29017;51.514;-0.178;2023-03-21T11:38:23;100419.53;;;15.39;79.58
43420;BME280;29017;51.514;-0.178;2023-03-21T11:40:53;100409.31;;;15.36;78.41
43420;BME280;29017;51.514;-0.178;2023-03-21T11:48:23;100425.47;;;15.41;78.63
43420;BME280;29017;51.514;-0.178;2023-03-21T11:50:51;100412.44;;;15.47;79.20
43420;BME280;29017;51.514;-0.178;2023-03-21T11:53:25;100414.91;;;15.48;79.09
43420;BME280;29017;51.514;-0.178;2023-03-21T12:03:37;100435.63;;;15.59;78.04
43420;BME280;29017;51.514;-0.178;2023-03-21T12:11:19;100425.53;;;15.48;80.11
43420;BME280;29017;51.514;-0.178;2023-03-21T12:38:55;100401.59;;;15.41;80.43
43420;BME280;29017;51.514;-0.178;2023-03-21T12:43:57;100391.00;;;15.41;79.22
43420;BME280;29017;51.514;-0.178;2023-03-21T12:49:00;100402.53;;;15.55;78.61
43420;BME280;29017;51.514;-0.178;2023-03-21T12:51:29;100403.59;;;15.61;78.03
43420;BME280;29017;51.514;-0.178;2023-03-21T12:54:01;100400.97;;;15.67;77.83
43420;BME280;29017;51.514;-0.178;2023-03-21T12:56:30;100396.53;;;15.74;77.07
43420;BME280;29017;51.514;-0.178;2023-03-21T13:01:27;100398.00;;;15.90;76.52
43420;BME280;29017;51.514;-0.178;2023-03-21T13:06:25;100400.09;;;16.01;75.58
43420;BME280;29017;51.514;-0.178;2023-03-21T13:11:26;100393.00;;;16.15;74.55
43420;BME280;29017;51.514;-0.178;2023-03-21T13:18:58;100388.28;;;16.10;73.68
43420;BME280;29017;51.514;-0.178;2023-03-21T13:28:57;100378.72;;;16.22;72.30
43420;BME280;29017;51.514;-0.178;2023-03-21T13:31:26;100360.56;;;16.19;73.25
43420;BME280;29017;51.514;-0.178;2023-03-21T13:34:06;100372.78;;;16.14;72.94
43420;BME280;29017;51.514;-0.178;2023-03-21T13:36:35;100373.16;;;16.04;72.71
43420;BME280;29017;51.514;-0.178;2023-03-21T13:39:05;100370.50;;;15.98;73.38
43420;BME280;29017;51.514;-0.178;2023-03-21T13:41:33;100368.44;;;15.93;73.61
43420;BME280;29017;51.514;-0.178;2023-03-21T13:54:15;100359.91;;;16.11;73.70
43420;BME280;29017;51.514;-0.178;2023-03-21T13:59:12;100354.81;;;16.16;73.51
43420;BME280;29017;51.514;-0.178;2023-03-21T14:01:41;100340.50;;;16.10;72.56
43420;BME280;29017;51.514;-0.178;2023-03-21T14:04:20;100354.41;;;16.12;73.35
43420;BME280;29017;51.514;-0.178;2023-03-21T14:07:10;100342.97;;;16.12;72.89
43420;BME280;29017;51.514;-0.178;2023-03-21T14:12:11;100353.16;;;16.08;71.57
43420;BME280;29017;51.514;-0.178;2023-03-21T14:14:40;100357.03;;;16.06;71.60
43420;BME280;29017;51.514;-0.178;2023-03-21T14:19:39;100366.00;;;15.98;71.26
43420;BME280;29017;51.514;-0.178;2023-03-21T14:22:09;100349.25;;;15.98;71.85
43420;BME280;29017;51.514;-0.178;2023-03-21T14:24:36;100351.50;;;15.94;71.98
43420;BME280;29017;51.514;-0.178;2023-03-21T14:27:03;100353.34;;;15.94;71.83
43420;BME280;29017;51.514;-0.178;2023-03-21T14:29:31;100356.38;;;15.91;71.61
43420;BME280;29017;51.514;-0.178;2023-03-21T14:32:00;100350.88;;;15.92;72.17
43420;BME280;29017;51.514;-0.178;2023-03-21T14:34:28;100347.19;;;15.93;71.75
43420;BME280;29017;51.514;-0.178;2023-03-21T14:36:57;100338.63;;;15.98;72.41
43420;BME280;29017;51.514;-0.178;2023-03-21T14:39:26;100347.41;;;15.92;71.74
43420;BME280;29017;51.514;-0.178;2023-03-21T14:41:55;100352.47;;;15.87;72.09
43420;BME280;29017;51.514;-0.178;2023-03-21T14:51:53;100358.56;;;15.80;72.86
43420;BME280;29017;51.514;-0.178;2023-03-21T14:54:20;100366.94;;;15.77;73.14
43420;BME280;29017;51.514;-0.178;2023-03-21T14:56:49;100361.00;;;15.75;72.67
43420;BME280;29017;51.514;-0.178;2023-03-21T14:59:19;100353.25;;;15.74;72.79
43420;BME280;29017;51.514;-0.178;2023-03-21T15:01:47;100356.56;;;15.82;73.29
43420;BME280;29017;51.514;-0.178;2023-03-21T15:04:15;100363.50;;;15.90;72.12
43420;BME280;29017;51.514;-0.178;2023-03-21T15:09:14;100362.53;;;15.98;71.96
43420;BME280;29017;51.514;-0.178;2023-03-21T15:11:41;100358.63;;;16.00;72.71
43420;BME280;29017;51.514;-0.178;2023-03-21T15:14:11;100361.72;;;16.04;72.10
43420;BME280;29017;51.514;-0.178;2023-03-21T15:16:39;100362.75;;;16.03;71.67
43420;BME280;29017;51.514;-0.178;2023-03-21T15:19:07;100365.38;;;15.96;71.62
43420;BME280;29017;51.514;-0.178;2023-03-21T15:21:37;100366.59;;;15.94;72.25
43420;BME280;29017;51.514;-0.178;2023-03-21T15:24:09;100356.41;;;15.97;73.50
43420;BME280;29017;51.514;-0.178;2023-03-21T15:26:43;100359.66;;;15.93;71.93
43420;BME280;29017;51.514;-0.178;2023-03-21T15:29:11;100349.63;;;15.88;72.01
43420;BME280;29017;51.514;-0.178;2023-03-21T15:31:39;100353.31;;;15.87;72.30
43420;BME280;29017;51.514;-0.178;2023-03-21T15:34:06;100343.50;;;15.88;71.92
43420;BME280;29017;51.514;-0.178;2023-03-21T15:39:12;100323.31;;;15.93;70.74
43420;BME280;29017;51.514;-0.178;2023-03-21T15:44:20;100312.72;;;16.00;71.17
43420;BME280;29017;51.514;-0.178;2023-03-21T15:46:49;100320.25;;;15.96;70.21
43420;BME280;29017;51.514;-0.178;2023-03-21T15:49:24;100322.09;;;15.96;71.58
43420;BME280;29017;51.514;-0.178;2023-03-21T15:54:24;100304.75;;;15.93;71.63
43420;BME280;29017;51.514;-0.178;2023-03-21T15:56:53;100308.41;;;15.92;71.61
43420;BME280;29017;51.514;-0.178;2023-03-21T15:59:23;100299.25;;;15.95;71.81
43420;BME280;29017;51.514;-0.178;2023-03-21T16:01:50;100306.78;;;15.98;70.94
43420;BME280;29017;51.514;-0.178;2023-03-21T16:04:18;100286.34;;;15.92;70.90
43420;BME280;29017;51.514;-0.178;2023-03-21T16:09:16;100288.78;;;15.73;71.51
43420;BME280;29017;51.514;-0.178;2023-03-21T16:11:50;100295.31;;;15.77;73.55
43420;BME280;29017;51.514;-0.178;2023-03-21T16:14:18;100295.72;;;15.74;71.45